Time;durP1;ratioP1;P1;durP2;ratioP2;P2;SDS_P1;SDS_P2;PMS_P1;PMS_P2;Temp;Humidity;BMP_temperature;BMP_pressure;BME280_temperature;BME280_humidity;BME280_pressure;Samples;Min_cycle;Max_cycle;Signal;HPM_P1;HPM_P2
2021/12/30 00:00:23;;;;;;;65.27;23.67;;;;;;;3.06;100.00;99940.41;3593134;79;98962;-90
2021/12/30 00:05:24;;;;;;;61.57;25.30;;;;;;;3.05;100.00;99938.24;3599769;79;98048;-90
2021/12/30 00:10:25;;;;;;;52.83;22.90;;;;;;;3.05;100.00;99947.76;3553727;79;98924;-92
2021/12/30 00:15:27;;;;;;;52.37;22.53;;;;;;;3.01;100.00;99944.12;3560348;79;34875;-91
2021/12/30 00:20:32;;;;;;;63.30;24.63;;;;;;;3.00;100.00;99941.19;3573264;80;98697;-92
2021/12/30 00:25:40;;;;;;;58.87;25.07;;;;;;;2.95;100.00;99932.47;3587168;80;98874;-91
2021/12/30 00:30:45;;;;;;;53.53;25.57;;;;;;;2.92;100.00;99938.57;3577453;79;98910;-91
2021/12/30 00:35:46;;;;;;;52.78;25.82;;;;;;;2.92;100.00;99948.09;3579481;79;99361;-91
2021/12/30 00:46:05;;;;;;;57.90;25.20;;;;;;;2.87;100.00;99956.45;3552503;80;26086;-91
2021/12/30 00:51:05;;;;;;;57.30;24.73;;;;;;;2.88;100.00;99945.80;3596582;79;99146;-92
2021/12/30 00:56:17;;;;;;;42.37;21.00;;;;;;;2.78;100.00;99919.09;3558901;78;99167;-93
2021/12/30 01:06:52;;;;;;;50.75;22.73;;;;;;;2.83;100.00;99928.36;3502232;79;99231;-92
2021/12/30 01:12:02;;;;;;;46.03;22.43;;;;;;;2.82;100.00;99942.53;3561126;79;99422;-92
2021/12/30 01:22:33;;;;;;;51.33;22.13;;;;;;;2.81;100.00;99938.23;3495843;80;98422;-92
2021/12/30 01:27:39;;;;;;;49.73;22.03;;;;;;;2.79;100.00;99944.55;3542096;79;98753;-91
2021/12/30 01:38:10;;;;;;;44.73;19.23;;;;;;;2.78;100.00;99958.49;3407362;80;99910;-92
2021/12/30 01:43:11;;;;;;;47.00;21.57;;;;;;;2.74;100.00;99962.42;3602924;79;98911;-91
2021/12/30 01:48:26;;;;;;;42.20;17.65;;;;;;;2.79;100.00;99964.92;3572874;79;98840;-92
2021/12/30 01:53:20;;;;;;;41.77;19.43;;;;;;;2.82;100.00;99981.93;3564486;79;26707;-91
2021/12/30 02:03:39;;;;;;;43.70;16.93;;;;;;;2.83;100.00;99987.59;3537314;80;98695;-90
2021/12/30 02:08:45;;;;;;;32.67;15.95;;;;;;;2.86;100.00;99982.85;3559611;78;99459;-90
2021/12/30 02:13:51;;;;;;;37.63;15.35;;;;;;;2.88;100.00;99977.05;3558231;80;99006;-91
2021/12/30 02:18:52;;;;;;;;;;;;;;;2.89;100.00;99971.88;3573682;79;99259;-91
2021/12/30 02:24:02;;;;;;;39.73;14.27;;;;;;;2.89;100.00;99984.88;3582348;80;34832;-91
2021/12/30 02:29:16;;;;;;;34.73;14.20;;;;;;;2.89;100.00;99987.59;3489107;79;98952;-92
2021/12/30 02:34:19;;;;;;;42.47;15.77;;;;;;;2.91;100.00;99982.64;3419337;83;98810;-91
2021/12/30 02:39:25;;;;;;;43.52;17.42;;;;;;;2.93;100.00;99967.33;3513257;79;98967;-91
2021/12/30 02:44:29;;;;;;;36.10;15.30;;;;;;;2.94;100.00;99971.63;3508959;79;98768;-91
2021/12/30 02:49:40;;;;;;;36.93;15.00;;;;;;;2.94;100.00;99970.27;3455541;81;99085;-91
2021/12/30 02:55:01;;;;;;;;;;;;;;;;;;;;;
2021/12/30 03:00:13;;;;;;;;;;;;;;;;;;;;;
2021/12/30 03:05:22;;;;;;;34.30;15.67;;;;;;;3.00;100.00;99978.46;3396522;84;98924;-92
2021/12/30 03:10:27;;;;;;;41.28;16.82;;;;;;;3.00;100.00;99986.62;3435090;82;98307;-96
2021/12/30 03:15:28;;;;;;;34.45;15.30;;;;;;;3.01;100.00;99983.53;3561213;81;98007;-96
2021/12/30 03:20:35;;;;;;;36.70;14.80;;;;;;;3.03;100.00;99996.24;3539209;82;98131;-96
2021/12/30 03:25:36;;;;;;;37.53;15.25;;;;;;;3.05;100.00;99995.33;3543522;81;97995;-96
2021/12/30 03:30:37;;;;;;;41.33;15.80;;;;;;;3.07;100.00;99999.08;3542445;82;98314;-95
2021/12/30 03:35:38;;;;;;;35.70;14.07;;;;;;;3.07;100.00;100003.94;3555302;82;98674;-96
2021/12/30 03:40:39;;;;;;;32.60;12.80;;;;;;;3.09;100.00;99997.61;3551103;82;98460;-96
2021/12/30 03:45:40;;;;;;;42.87;14.30;;;;;;;3.08;100.00;99991.95;3541861;81;98594;-96
2021/12/30 03:50:45;;;;;;;34.17;14.87;;;;;;;3.09;100.00;99980.49;3550311;81;98877;-96
2021/12/30 03:55:48;;;;;;;39.58;14.93;;;;;;;3.09;100.00;99990.81;3575548;82;98989;-96
2021/12/30 04:00:55;;;;;;;37.58;15.25;;;;;;;3.12;100.00;99996.92;3575125;81;98255;-96
2021/12/30 04:16:57;;;;;;;33.63;13.10;;;;;;;3.18;100.00;100007.02;3408563;81;57268;-96
2021/12/30 04:21:58;;;;;;;39.23;16.40;;;;;;;3.18;100.00;100016.54;3458417;82;98311;-96
2021/12/30 04:26:59;;;;;;;33.20;14.55;;;;;;;3.17;100.00;100015.73;3454413;84;99617;-95
2021/12/30 04:32:00;;;;;;;36.03;14.90;;;;;;;3.17;100.00;100030.69;3445213;84;98626;-96
2021/12/30 04:37:01;;;;;;;41.20;16.63;;;;;;;3.19;100.00;100043.95;3454150;84;98531;-96
2021/12/30 04:42:02;;;;;;;33.70;15.60;;;;;;;3.20;100.00;100054.50;3457789;84;98314;-96
2021/12/30 04:47:03;;;;;;;43.80;16.60;;;;;;;3.19;100.00;100049.39;3484003;82;98856;-95
2021/12/30 04:52:05;;;;;;;34.13;15.88;;;;;;;3.17;100.00;100042.14;3476729;83;99388;-95
2021/12/30 04:57:05;;;;;;;39.10;16.63;;;;;;;3.15;100.00;100044.39;3452373;82;99478;-96
2021/12/30 05:02:06;;;;;;;32.63;15.73;;;;;;;3.14;100.00;100061.28;3436778;84;98592;-96
2021/12/30 05:07:07;;;;;;;41.70;15.93;;;;;;;3.14;100.00;100062.64;3470960;82;99193;-95
2021/12/30 05:12:08;;;;;;;37.03;15.53;;;;;;;3.11;100.00;100046.99;3502854;82;98893;-96
2021/12/30 05:17:11;;;;;;;44.83;16.50;;;;;;;3.12;100.00;100041.00;3517963;82;98205;-95
2021/12/30 05:22:11;;;;;;;47.33;17.40;;;;;;;3.14;100.00;100038.17;3508695;82;99605;-94
2021/12/30 05:27:12;;;;;;;57.37;18.97;;;;;;;3.16;100.00;100038.62;3509517;82;99540;-95
2021/12/30 05:32:14;;;;;;;53.47;16.90;;;;;;;3.19;100.00;100056.99;3503923;82;98505;-92
2021/12/30 05:37:15;;;;;;;45.00;19.47;;;;;;;3.21;100.00;100047.12;3496392;82;99181;-96
2021/12/30 05:42:16;;;;;;;36.25;16.50;;;;;;;3.16;100.00;100046.00;3508904;82;98919;-95
2021/12/30 05:47:17;;;;;;;46.30;18.47;;;;;;;3.22;100.00;100042.70;3517153;82;98713;-94
2021/12/30 05:52:18;;;;;;;43.07;17.93;;;;;;;3.22;100.00;100063.69;3504346;82;99479;-96
2021/12/30 05:57:19;;;;;;;34.87;15.23;;;;;;;3.22;100.00;100052.81;3514333;82;99585;-88
2021/12/30 06:02:20;;;;;;;39.53;17.37;;;;;;;3.19;100.00;100048.03;3506842;82;98773;-88
2021/12/30 06:07:20;;;;;;;36.50;16.53;;;;;;;3.19;100.00;100035.80;3516408;82;99219;-89
2021/12/30 06:12:22;;;;;;;42.33;17.80;;;;;;;3.18;100.00;100049.16;3498872;82;99412;-88
2021/12/30 06:17:24;;;;;;;35.83;16.73;;;;;;;3.18;100.00;100049.94;3507925;82;99410;-87
2021/12/30 06:22:24;;;;;;;37.97;18.50;;;;;;;3.20;100.00;100047.70;3494887;82;99523;-87
2021/12/30 06:27:25;;;;;;;39.40;18.47;;;;;;;3.21;100.00;100043.03;3499982;82;99515;-87
2021/12/30 06:32:26;;;;;;;35.60;16.80;;;;;;;3.22;100.00;100050.87;3496080;82;99447;-87
2021/12/30 06:37:29;;;;;;;38.30;19.73;;;;;;;3.25;100.00;100046.12;3503814;82;32459;-87
2021/12/30 06:42:30;;;;;;;39.77;18.27;;;;;;;3.29;100.00;100058.48;3509878;82;98940;-87
2021/12/30 06:47:31;;;;;;;45.10;21.53;;;;;;;3.29;100.00;100058.48;3508546;82;99428;-88
2021/12/30 06:52:32;;;;;;;43.60;21.77;;;;;;;3.30;100.00;100057.34;3513078;80;99497;-89
2021/12/30 06:57:34;;;;;;;39.27;19.87;;;;;;;3.32;100.00;100072.75;3527952;81;99104;-88
2021/12/30 07:02:36;;;;;;;46.63;22.30;;;;;;;3.31;100.00;100068.44;3522580;81;100776;-88
2021/12/30 07:07:37;;;;;;;46.03;21.87;;;;;;;3.30;100.00;100079.91;3511313;81;32458;-88
2021/12/30 07:12:38;;;;;;;51.13;24.83;;;;;;;3.31;100.00;100090.20;3500067;82;99213;-88
2021/12/30 07:17:40;;;;;;;47.63;24.17;;;;;;;3.33;100.00;100105.05;3508268;82;99563;-88
2021/12/30 07:22:42;;;;;;;43.80;23.90;;;;;;;3.33;100.00;100105.63;3498539;82;99710;-88
2021/12/30 07:27:50;;;;;;;48.10;25.57;;;;;;;3.33;100.00;100100.97;3502186;82;99033;-88
2021/12/30 07:32:52;;;;;;;49.83;25.10;;;;;;;3.33;100.00;100102.33;3493672;82;99398;-87
2021/12/30 07:37:53;;;;;;;47.53;25.72;;;;;;;3.35;100.00;100116.95;3454716;82;33931;-90
2021/12/30 07:42:54;;;;;;;43.90;23.63;;;;;;;3.33;100.00;100113.20;3504715;82;98883;-89
2021/12/30 07:47:55;;;;;;;43.47;23.23;;;;;;;3.36;100.00;100112.55;3520413;82;98978;-88
2021/12/30 07:52:56;;;;;;;42.07;22.50;;;;;;;3.36;100.00;100113.91;3506231;82;98965;-88
2021/12/30 07:57:58;;;;;;;39.43;22.37;;;;;;;3.37;100.00;100116.85;3517732;82;99143;-92
2021/12/30 08:02:59;;;;;;;39.90;20.43;;;;;;;3.40;100.00;100116.74;3514791;82;99006;-91
2021/12/30 08:08:00;;;;;;;39.57;20.57;;;;;;;3.43;100.00;100122.86;3521705;82;32452;-92
2021/12/30 08:13:02;;;;;;;39.57;20.90;;;;;;;3.45;100.00;100128.19;3509699;82;98810;-94
2021/12/30 08:18:03;;;;;;;38.77;19.40;;;;;;;3.47;100.00;100136.02;3512503;82;99455;-92
2021/12/30 08:23:05;;;;;;;37.73;19.40;;;;;;;3.48;100.00;100127.53;3509539;82;99083;-92
2021/12/30 08:28:06;;;;;;;37.57;19.93;;;;;;;3.51;100.00;100130.95;3467056;82;98977;-92
2021/12/30 08:33:07;;;;;;;38.77;19.23;;;;;;;3.53;100.00;100129.23;3506123;82;98987;-91
2021/12/30 08:38:08;;;;;;;38.50;18.77;;;;;;;3.55;100.00;100131.06;3507471;81;98544;-96
2021/12/30 08:43:10;;;;;;;34.43;19.40;;;;;;;3.55;100.00;100140.00;3490608;82;98148;-96
2021/12/30 08:48:11;;;;;;;32.75;18.50;;;;;;;3.58;100.00;100135.27;3503214;82;99274;-96
2021/12/30 08:53:14;;;;;;;35.28;18.87;;;;;;;3.59;100.00;100125.16;3510780;81;99588;-95
2021/12/30 08:58:15;;;;;;;34.00;19.20;;;;;;;3.64;100.00;100127.11;3524065;81;108219;-94
2021/12/30 09:03:17;;;;;;;39.50;19.33;;;;;;;3.67;100.00;100137.88;3445445;84;99259;-94
2021/12/30 09:08:18;;;;;;;36.90;19.87;;;;;;;3.72;100.00;100143.11;3447901;84;99163;-92
2021/12/30 09:13:20;;;;;;;36.80;19.50;;;;;;;3.75;100.00;100151.39;3527538;82;98761;-91
2021/12/30 09:18:22;;;;;;;36.68;20.08;;;;;;;3.78;100.00;100142.53;3505856;82;98997;-92
2021/12/30 09:23:24;;;;;;;44.45;21.30;;;;;;;3.79;100.00;100144.14;3438293;83;98367;-92
2021/12/30 09:28:24;;;;;;;46.40;23.80;;;;;;;3.81;100.00;100149.22;3494697;81;99333;-90
2021/12/30 09:33:25;;;;;;;38.83;20.00;;;;;;;3.85;100.00;100150.95;3417994;84;99758;-92
2021/12/30 09:38:26;;;;;;;44.67;20.67;;;;;;;3.90;100.00;100147.20;3426235;83;99221;-91
2021/12/30 09:43:27;;;;;;;44.17;19.07;;;;;;;3.94;100.00;100143.45;3499417;82;32456;-93
2021/12/30 09:48:28;;;;;;;39.90;19.90;;;;;;;4.00;100.00;100142.12;3424783;84;98945;-90
2021/12/30 09:53:29;;;;;;;37.80;19.23;;;;;;;3.97;100.00;100133.81;3502190;82;99089;-92
2021/12/30 09:58:30;;;;;;;39.83;18.23;;;;;;;4.09;100.00;100157.76;3496504;82;99167;-92
2021/12/30 10:03:31;;;;;;;40.90;19.80;;;;;;;4.13;100.00;100143.70;3497363;82;99107;-92
2021/12/30 10:08:36;;;;;;;45.13;19.70;;;;;;;4.22;100.00;100151.75;3501212;81;99717;-91
2021/12/30 10:13:35;;;;;;;42.03;17.20;;;;;;;4.29;100.00;100154.69;3442005;84;26101;-93
2021/12/30 10:18:56;;;;;;;47.17;20.33;;;;;;;4.35;100.00;100146.50;3434943;84;99224;-92
2021/12/30 10:24:01;;;;;;;36.40;16.45;;;;;;;4.43;100.00;100134.70;3516327;81;98777;-91
2021/12/30 10:29:04;;;;;;;36.13;16.40;;;;;;;4.49;100.00;100125.96;3493045;81;99150;-92
2021/12/30 10:34:09;;;;;;;46.60;15.93;;;;;;;4.57;100.00;100141.38;3502821;81;99067;-91
2021/12/30 10:39:24;;;;;;;43.37;17.53;;;;;;;4.64;100.00;100155.79;3552563;81;99300;-94
2021/12/30 10:44:48;;;;;;;40.33;18.02;;;;;;;4.70;100.00;100151.69;3542558;81;105491;-92
2021/12/30 10:50:10;;;;;;;47.50;18.07;;;;;;;4.73;100.00;100153.15;3520141;81;99165;-94
2021/12/30 10:55:13;;;;;;;41.53;18.43;;;;;;;4.80;100.00;100151.20;3560772;80;98831;-96
2021/12/30 11:00:32;;;;;;;40.05;17.87;;;;;;;4.84;100.00;100151.53;3547454;80;98545;-92
2021/12/30 11:05:32;;;;;;;38.78;18.25;;;;;;;4.91;100.00;100155.04;3556614;81;99321;-94
2021/12/30 11:10:37;;;;;;;41.73;17.27;;;;;;;4.93;100.00;100163.09;3556239;81;99047;-91
2021/12/30 11:15:39;;;;;;;42.60;15.67;;;;;;;5.01;100.00;100165.44;3541872;81;98959;-92
2021/12/30 11:20:45;;;;;;;35.50;17.57;;;;;;;5.06;100.00;100154.28;3559095;80;98727;-94
2021/12/30 11:25:48;;;;;;;33.23;15.10;;;;;;;5.14;100.00;100158.81;3588799;81;32582;-96
2021/12/30 11:30:49;;;;;;;33.48;14.13;;;;;;;5.25;100.00;100166.72;3557417;81;98952;-96
2021/12/30 11:35:52;;;;;;;37.87;16.23;;;;;;;5.35;100.00;100162.13;3588345;79;99264;-95
2021/12/30 11:40:53;;;;;;;39.67;17.85;;;;;;;5.44;100.00;100179.94;3570225;81;99178;-96
2021/12/30 11:45:54;;;;;;;36.33;15.80;;;;;;;5.50;100.00;100176.36;3591512;80;99435;-95
2021/12/30 11:51:09;;;;;;;46.43;17.47;;;;;;;5.57;100.00;100173.26;3571388;81;98501;-94
2021/12/30 11:56:22;;;;;;;38.10;16.02;;;;;;;5.65;100.00;100174.24;3581837;80;31147;-96
2021/12/30 12:01:27;;;;;;;45.95;16.65;;;;;;;5.69;100.00;100177.31;3570393;81;99109;-96
2021/12/30 12:06:46;;;;;;;43.63;17.67;;;;;;;5.76;100.00;100178.84;3586610;79;98934;-94
2021/12/30 12:12:01;;;;;;;46.48;15.48;;;;;;;5.81;100.00;100176.45;3574840;79;98887;-93
2021/12/30 12:17:17;;;;;;;40.20;14.78;;;;;;;5.86;100.00;100170.17;3580509;81;99500;-93
2021/12/30 12:22:26;;;;;;;41.55;16.77;;;;;;;5.90;100.00;100172.98;3584571;80;99394;-92
2021/12/30 12:27:34;;;;;;;52.67;17.20;;;;;;;5.95;100.00;100157.70;3596139;80;99536;-93
2021/12/30 12:32:43;;;;;;;54.13;15.87;;;;;;;6.03;100.00;100140.33;3591909;81;99557;-95
2021/12/30 12:37:49;;;;;;;54.73;17.83;;;;;;;6.08;100.00;100139.50;3560886;80;26081;-92
2021/12/30 12:42:55;;;;;;;43.80;16.73;;;;;;;6.12;100.00;100140.36;3589228;80;99213;-90
2021/12/30 12:48:21;;;;;;;45.17;19.48;;;;;;;6.18;100.00;100162.76;3588323;79;98941;-93
2021/12/30 12:53:30;;;;;;;48.33;21.43;;;;;;;6.23;100.00;100170.09;3593780;79;99113;-93
2021/12/30 12:58:39;;;;;;;57.73;23.10;;;;;;;6.24;100.00;100162.14;3586862;80;99535;-92
2021/12/30 13:03:43;;;;;;;56.93;23.83;;;;;;;6.27;100.00;100156.55;3595619;79;99462;-91
2021/12/30 13:08:50;;;;;;;65.37;22.22;;;;;;;6.29;100.00;100154.24;3582672;80;99503;-91
2021/12/30 13:13:53;;;;;;;67.23;21.90;;;;;;;6.32;100.00;100139.29;3499457;81;26741;-92
2021/12/30 13:19:06;;;;;;;56.55;21.60;;;;;;;6.34;100.00;100129.38;3581980;81;99456;-91
2021/12/30 13:24:08;;;;;;;44.03;20.77;;;;;;;6.38;100.00;100109.76;3597109;79;98003;-93
2021/12/30 13:29:08;;;;;;;61.88;24.65;;;;;;;6.42;100.00;100129.73;3588656;80;99314;-96
2021/12/30 13:34:09;;;;;;;70.07;26.50;;;;;;;6.47;100.00;100138.47;3603958;80;99240;-93
2021/12/30 13:39:13;;;;;;;58.93;24.07;;;;;;;6.50;100.00;100120.56;3588081;80;98925;-93
2021/12/30 13:44:14;;;;;;;57.55;23.20;;;;;;;6.52;100.00;100145.03;3601760;80;33751;-93
2021/12/30 13:49:15;;;;;;;57.03;25.17;;;;;;;6.56;100.00;100136.34;3595808;79;99101;-92
2021/12/30 13:54:16;;;;;;;70.23;25.73;;;;;;;6.61;100.00;100133.30;3600561;79;99259;-90
2021/12/30 13:59:17;;;;;;;66.67;29.00;;;;;;;6.62;100.00;100141.75;3595648;80;99375;-91
2021/12/30 14:04:24;;;;;;;83.53;33.50;;;;;;;6.64;100.00;100145.47;3584986;80;99111;-91
2021/12/30 14:09:23;;;;;;;72.25;33.38;;;;;;;6.69;100.00;100153.39;3587305;80;98657;-92
2021/12/30 14:14:29;;;;;;;66.90;31.17;;;;;;;6.72;100.00;100156.80;3599286;80;98224;-89
2021/12/30 14:19:36;;;;;;;71.57;32.93;;;;;;;6.76;100.00;100148.09;3572743;81;98956;-88
2021/12/30 14:24:40;;;;;;;90.53;35.60;;;;;;;6.77;100.00;100166.09;3573343;80;98986;-91
2021/12/30 14:29:41;;;;;;;83.53;38.60;;;;;;;6.82;100.00;100187.69;3577063;79;99445;-90
2021/12/30 14:34:45;;;;;;;69.20;33.37;;;;;;;6.83;100.00;100185.16;3567669;79;99445;-90
2021/12/30 14:39:56;;;;;;;52.13;26.43;;;;;;;6.89;100.00;100170.05;3577338;80;99115;-90
2021/12/30 14:45:08;;;;;;;46.83;25.13;;;;;;;6.94;100.00;100181.52;3585332;81;99509;-90
2021/12/30 14:50:23;;;;;;;47.85;23.83;;;;;;;6.99;100.00;100173.59;3578538;81;99097;-90
2021/12/30 14:55:34;;;;;;;51.53;26.53;;;;;;;7.03;100.00;100172.52;3578822;80;98827;-90
2021/12/30 15:00:45;;;;;;;57.00;26.20;;;;;;;7.08;100.00;100179.63;3479743;83;99378;-89
2021/12/30 15:05:46;;;;;;;49.33;25.10;;;;;;;7.11;100.00;100161.95;3587461;81;99116;-91
2021/12/30 15:10:47;;;;;;;52.57;24.80;;;;;;;7.15;100.00;100154.58;3575717;81;99103;-90
2021/12/30 15:15:48;;;;;;;55.57;26.80;;;;;;;7.18;100.00;100138.81;3583507;79;99065;-90
2021/12/30 15:20:49;;;;;;;59.65;28.55;;;;;;;7.23;100.00;100144.00;3582894;81;98977;-88
2021/12/30 15:25:50;;;;;;;62.80;30.73;;;;;;;7.24;100.00;100157.09;3571787;79;26527;-88
2021/12/30 15:30:52;;;;;;;64.47;33.20;;;;;;;7.24;100.00;100150.25;3582468;79;99399;-86
2021/12/30 15:35:53;;;;;;;64.53;31.43;;;;;;;7.24;100.00;100163.94;3594105;81;99020;-88
2021/12/30 15:40:56;;;;;;;53.90;29.83;;;;;;;7.22;100.00;100171.73;3576821;79;99036;-88
2021/12/30 15:45:57;;;;;;;56.43;28.67;;;;;;;7.23;100.00;100172.74;3588093;81;99090;-88
2021/12/30 15:51:00;;;;;;;56.77;28.30;;;;;;;7.21;100.00;100179.13;3585168;80;99097;-90
2021/12/30 15:56:02;;;;;;;61.40;30.15;;;;;;;7.21;100.00;100190.67;3585286;79;32476;-88
2021/12/30 16:01:03;;;;;;;66.82;32.00;;;;;;;7.22;100.00;100164.32;3572208;81;99558;-88
2021/12/30 16:06:05;;;;;;;62.37;33.10;;;;;;;7.21;100.00;100181.09;3591830;79;99383;-89
2021/12/30 16:11:06;;;;;;;62.73;34.50;;;;;;;7.21;100.00;100177.77;3589239;81;99438;-89
2021/12/30 16:16:07;;;;;;;67.55;34.15;;;;;;;7.20;100.00;100175.41;3604432;79;99454;-88
2021/12/30 16:21:08;;;;;;;71.63;35.43;;;;;;;7.21;100.00;100166.04;3572521;81;99432;-89
2021/12/30 16:26:11;;;;;;;67.20;35.53;;;;;;;7.21;100.00;100166.04;3559482;80;26335;-89
2021/12/30 16:31:13;;;;;;;59.50;31.70;;;;;;;7.19;100.00;100171.87;3578343;80;99066;-88
2021/12/30 16:36:14;;;;;;;79.07;36.73;;;;;;;7.19;100.00;100179.30;3582522;80;98928;-86
2021/12/30 16:41:14;;;;;;;76.67;37.40;;;;;;;7.19;100.00;100178.71;3567956;81;99159;-88
2021/12/30 16:46:15;;;;;;;115.47;35.30;;;;;;;7.19;100.00;100168.36;3578712;80;99518;-88
2021/12/30 16:51:21;;;;;;;65.47;33.23;;;;;;;7.19;100.00;100169.73;3569040;81;99559;-89
2021/12/30 16:56:22;;;;;;;77.10;30.73;;;;;;;7.18;100.00;100160.71;3578206;81;29237;-89
2021/12/30 17:01:23;;;;;;;83.00;32.60;;;;;;;7.19;100.00;100151.94;3571390;81;99046;-88
2021/12/30 17:06:25;;;;;;;71.23;32.17;;;;;;;7.17;100.00;100149.55;3579366;80;98837;-88
2021/12/30 17:11:26;;;;;;;82.53;36.30;;;;;;;7.18;100.00;100144.86;3579159;80;98994;-89
2021/12/30 17:16:29;;;;;;;71.00;32.90;;;;;;;7.19;100.00;100136.89;3583251;81;99016;-90
2021/12/30 17:21:30;;;;;;;79.60;31.17;;;;;;;7.17;100.00;100141.34;3568718;81;99029;-88
2021/12/30 17:26:31;;;;;;;67.83;29.57;;;;;;;7.15;100.00;100136.02;3575519;81;99012;-88
2021/12/30 17:31:33;;;;;;;68.40;28.42;;;;;;;7.12;100.00;100143.56;3575696;81;99165;-87
2021/12/30 17:36:34;;;;;;;53.27;25.57;;;;;;;7.16;100.00;100154.02;3585626;81;99195;-87
2021/12/30 17:41:36;;;;;;;49.10;22.77;;;;;;;7.20;100.00;100162.50;3535041;81;99453;-89
2021/12/30 17:46:39;;;;;;;38.20;20.23;;;;;;;7.24;100.00;100152.42;3586983;80;99227;-87
2021/12/30 17:51:40;;;;;;;37.48;19.70;;;;;;;7.27;100.00;100158.56;3573584;80;99355;-88
2021/12/30 17:56:44;;;;;;;34.03;18.10;;;;;;;7.31;100.00;100166.84;3587840;79;99078;-88
2021/12/30 18:01:46;;;;;;;34.77;18.80;;;;;;;7.33;100.00;100159.84;3543273;79;99077;-89
2021/12/30 18:06:47;;;;;;;35.33;17.60;;;;;;;7.36;100.00;100148.75;3580250;79;98924;-90
2021/12/30 18:11:48;;;;;;;38.67;17.73;;;;;;;7.39;100.00;100138.43;3575036;81;99010;-90
2021/12/30 18:16:49;;;;;;;35.67;16.97;;;;;;;7.41;100.00;100146.50;3580006;81;99113;-91
2021/12/30 18:21:50;;;;;;;38.80;18.10;;;;;;;7.42;100.00;100143.97;3578762;80;99134;-89
2021/12/30 18:26:52;;;;;;;32.40;16.67;;;;;;;7.43;100.00;100143.40;3579470;80;99072;-88
2021/12/30 18:31:53;;;;;;;33.63;17.87;;;;;;;7.46;100.00;100148.94;3577425;80;98734;-89
2021/12/30 18:36:54;;;;;;;30.73;16.30;;;;;;;7.49;100.00;100150.97;3583169;80;99167;-90
2021/12/30 18:41:56;;;;;;;35.73;19.23;;;;;;;7.51;100.00;100145.91;3572269;80;99382;-90
2021/12/30 18:46:57;;;;;;;31.63;16.77;;;;;;;7.54;100.00;100142.45;3569289;81;98973;-89
2021/12/30 18:51:58;;;;;;;35.43;20.43;;;;;;;7.55;100.00;100149.52;3575195;81;99083;-90
2021/12/30 18:56:59;;;;;;;42.03;22.93;;;;;;;7.52;100.00;100146.12;3584057;80;99082;-89
2021/12/30 19:02:00;;;;;;;40.43;20.03;;;;;;;7.61;100.00;100158.20;3576995;80;98925;-89
2021/12/30 19:07:01;;;;;;;45.50;20.57;;;;;;;7.62;100.00;100145.52;3579521;81;98902;-87
2021/12/30 19:12:10;;;;;;;44.47;21.63;;;;;;;7.63;100.00;100144.96;3552632;81;99057;-90
2021/12/30 19:17:08;;;;;;;;;;;;;;;7.64;100.00;100150.05;3591829;80;99377;-90
2021/12/30 19:22:11;;;;;;;49.30;24.27;;;;;;;7.65;100.00;100151.66;3576816;81;84897;-92
2021/12/30 19:27:12;;;;;;;44.03;22.70;;;;;;;7.67;100.00;100156.75;3564179;81;99017;-93
2021/12/30 19:32:13;;;;;;;37.33;19.73;;;;;;;7.70;100.00;100156.81;3577837;81;98512;-90
2021/12/30 19:37:17;;;;;;;36.87;20.67;;;;;;;7.74;100.00;100157.67;3578944;79;98860;-92
2021/12/30 19:42:21;;;;;;;33.47;18.50;;;;;;;7.79;100.00;100160.70;3564243;80;99069;-92
2021/12/30 19:47:24;;;;;;;32.50;19.00;;;;;;;7.84;100.00;100166.66;3575523;79;99321;-96
2021/12/30 19:52:24;;;;;;;27.13;15.70;;;;;;;7.88;100.00;100168.09;3555017;81;99105;-95
2021/12/30 19:57:25;;;;;;;31.17;16.07;;;;;;;7.95;100.00;100173.69;3560798;81;99006;-95
2021/12/30 20:02:28;;;;;;;25.67;13.53;;;;;;;7.99;100.00;100177.28;3570338;81;98818;-95
2021/12/30 20:07:34;;;;;;;22.60;13.17;;;;;;;8.03;100.00;100170.73;3567261;80;99448;-92
2021/12/30 20:12:37;;;;;;;22.02;12.70;;;;;;;8.11;100.00;100175.72;3546963;81;99096;-94
2021/12/30 20:17:37;;;;;;;18.32;11.68;;;;;;;8.17;100.00;100179.17;3583797;79;98324;-93
2021/12/30 20:22:41;;;;;;;19.70;11.87;;;;;;;8.25;100.00;100165.84;3578685;80;99216;-91
2021/12/30 20:27:42;;;;;;;18.37;12.33;;;;;;;8.38;100.00;100164.47;3586035;81;99160;-88
2021/12/30 20:32:46;;;;;;;18.07;11.20;;;;;;;8.55;100.00;100170.80;3574348;79;99784;-90
2021/12/30 20:37:48;;;;;;;17.12;11.22;;;;;;;8.66;100.00;100171.74;3586940;81;31252;-92
2021/12/30 20:42:50;;;;;;;17.77;10.43;;;;;;;8.78;100.00;100177.60;3571678;79;98965;-89
2021/12/30 20:47:52;;;;;;;15.10;9.40;;;;;;;8.85;100.00;100177.69;3590025;81;99173;-91
2021/12/30 20:52:56;;;;;;;17.20;10.38;;;;;;;8.90;100.00;100181.48;3579877;81;99040;-90
2021/12/30 20:57:57;;;;;;;19.60;11.67;;;;;;;9.01;100.00;100193.40;3576710;79;99623;-91
2021/12/30 21:02:58;;;;;;;17.80;10.47;;;;;;;9.04;100.00;100187.95;3580755;81;99266;-89
2021/12/30 21:08:03;;;;;;;14.97;8.90;;;;;;;9.09;100.00;100197.81;3585154;79;26406;-90
2021/12/30 21:13:06;;;;;;;13.60;7.90;;;;;;;9.14;100.00;100206.52;3583802;81;98892;-94
2021/12/30 21:18:08;;;;;;;14.20;7.73;;;;;;;9.21;100.00;100208.58;3578964;81;99125;-90
2021/12/30 21:23:13;;;;;;;13.63;7.47;;;;;;;9.32;100.00;100199.89;3587977;81;99055;-89
2021/12/30 21:28:15;;;;;;;16.87;8.03;;;;;;;9.41;100.00;100205.87;3556868;79;99490;-88
2021/12/30 21:33:20;;;;;;;15.03;7.30;;;;;;;9.51;100.00;100207.38;3588052;81;99354;-89
2021/12/30 21:38:25;;;;;;;14.30;7.33;;;;;;;9.59;100.00;100218.66;3577748;81;98640;-89
2021/12/30 21:43:27;;;;;;;13.63;7.03;;;;;;;9.67;100.00;100209.91;3499686;82;99116;-90
2021/12/30 21:48:29;;;;;;;13.65;7.45;;;;;;;9.76;100.00;100217.28;3495348;82;99073;-89
2021/12/30 21:53:30;;;;;;;12.95;7.53;;;;;;;9.77;100.00;100214.73;3520367;82;98983;-89
2021/12/30 21:58:31;;;;;;;14.53;7.90;;;;;;;9.85;100.00;100208.93;3501501;82;99713;-88
2021/12/30 22:03:33;;;;;;;12.80;7.13;;;;;;;9.88;100.00;100201.30;3506514;82;99091;-91
2021/12/30 22:08:34;;;;;;;12.87;7.33;;;;;;;9.94;100.00;100210.80;3511635;82;99117;-90
2021/12/30 22:13:35;;;;;;;11.00;5.67;;;;;;;9.96;100.00;100205.70;3521685;82;26246;-89
2021/12/30 22:18:37;;;;;;;14.00;8.60;;;;;;;10.00;100.00;100205.16;3500035;82;99215;-88
2021/12/30 22:23:37;;;;;;;14.57;7.20;;;;;;;10.05;100.00;100215.05;3513080;82;99328;-88
2021/12/30 22:28:42;;;;;;;16.07;7.23;;;;;;;10.07;100.00;100217.63;3486683;82;99541;-87
2021/12/30 22:33:43;;;;;;;10.40;6.22;;;;;;;10.09;100.00;100227.66;3516268;82;99325;-89
2021/12/30 22:38:44;;;;;;;13.83;6.87;;;;;;;10.16;100.00;100233.81;3507019;82;99639;-88
2021/12/30 22:43:46;;;;;;;12.03;6.77;;;;;;;10.18;100.00;100238.34;3510814;82;25940;-88
2021/12/30 22:48:47;;;;;;;11.45;6.40;;;;;;;10.23;100.00;100244.30;3504319;82;99708;-89
2021/12/30 22:53:49;;;;;;;12.20;6.40;;;;;;;10.27;100.00;100234.70;3510243;82;99454;-89
2021/12/30 22:58:50;;;;;;;10.98;6.05;;;;;;;10.32;100.00;100247.53;3497732;82;99576;-89
2021/12/30 23:03:53;;;;;;;12.10;6.37;;;;;;;10.38;100.00;100253.47;3510951;82;99653;-90
2021/12/30 23:08:55;;;;;;;14.75;6.45;;;;;;;10.40;100.00;100258.80;3505368;82;99687;-88
2021/12/30 23:13:56;;;;;;;12.93;6.40;;;;;;;10.45;100.00;100256.27;3511155;82;32337;-87
2021/12/30 23:18:59;;;;;;;10.67;5.80;;;;;;;10.47;100.00;100256.09;3509278;82;99488;-87
2021/12/30 23:24:00;;;;;;;13.22;6.00;;;;;;;10.47;100.00;100260.83;3510496;82;99117;-88
2021/12/30 23:29:01;;;;;;;11.77;6.63;;;;;;;10.49;100.00;100266.73;3495432;82;99722;-88
2021/12/30 23:34:03;;;;;;;9.43;5.40;;;;;;;10.51;100.00;100268.50;3505080;82;99624;-89
2021/12/30 23:39:04;;;;;;;9.07;5.20;;;;;;;10.50;100.00;100271.86;3496378;82;99106;-89
2021/12/30 23:44:06;;;;;;;9.17;5.13;;;;;;;10.48;100.00;100270.05;3504816;82;26385;-92